createdAt,value
2023-10-31T00:02:18.906Z,13.72
2023-10-31T00:04:46.345Z,13.71
2023-10-31T00:07:13.776Z,13.69
2023-10-31T00:09:41.269Z,13.66
2023-10-31T00:12:08.913Z,13.63
2023-10-31T00:14:36.513Z,13.59
2023-10-31T00:17:04.052Z,13.54
2023-10-31T00:19:31.501Z,13.50
2023-10-31T00:21:58.964Z,13.47
2023-10-31T00:24:27.284Z,13.43
2023-10-31T00:26:54.641Z,13.39
2023-10-31T00:29:22.090Z,13.35
2023-10-31T00:31:49.572Z,13.31
2023-10-31T00:34:17.004Z,13.26
2023-10-31T00:36:44.475Z,13.22
2023-10-31T00:39:11.925Z,13.18
2023-10-31T00:41:40.555Z,13.17
2023-10-31T00:44:07.956Z,13.15
2023-10-31T00:46:35.525Z,13.13
2023-10-31T00:49:03.202Z,13.10
2023-10-31T00:51:30.583Z,13.08
2023-10-31T00:53:58.066Z,13.06
2023-10-31T00:56:25.460Z,13.05
2023-10-31T00:58:52.858Z,13.04
2023-10-31T01:01:20.316Z,13.02
2023-10-31T01:03:47.804Z,13.01
2023-10-31T01:06:15.187Z,12.98
2023-10-31T01:08:42.703Z,13.04
2023-10-31T01:11:10.924Z,13.10
2023-10-31T01:13:39.011Z,13.09
2023-10-31T01:16:06.734Z,13.07
2023-10-31T01:18:34.112Z,13.05
2023-10-31T01:21:01.499Z,13.03
2023-10-31T01:23:28.927Z,13.00
2023-10-31T01:25:56.347Z,12.97
2023-10-31T01:28:23.726Z,12.93
2023-10-31T01:30:51.136Z,12.88
2023-10-31T01:33:18.964Z,12.81
2023-10-31T01:35:46.643Z,12.75
2023-10-31T01:38:14.205Z,12.71
2023-10-31T01:40:41.798Z,12.68
2023-10-31T01:43:09.191Z,12.67
2023-10-31T01:45:36.918Z,12.73
2023-10-31T01:48:04.422Z,12.81
2023-10-31T01:50:33.415Z,12.80
2023-10-31T01:53:02.022Z,12.78
2023-10-31T01:55:30.749Z,12.76
2023-10-31T01:57:58.148Z,12.73
2023-10-31T02:00:25.616Z,12.69
2023-10-31T02:02:53.542Z,12.65
2023-10-31T02:05:21.008Z,12.61
2023-10-31T02:07:49.824Z,12.57
2023-10-31T02:10:17.450Z,12.52
2023-10-31T02:12:44.877Z,12.49
2023-10-31T02:15:12.862Z,12.47
2023-10-31T02:17:40.582Z,12.44
2023-10-31T02:20:08.593Z,12.52
2023-10-31T02:22:36.031Z,12.58
2023-10-31T02:25:04.687Z,12.56
2023-10-31T02:27:32.622Z,12.54
2023-10-31T02:30:00.187Z,12.52
2023-10-31T02:32:27.840Z,12.49
2023-10-31T02:34:55.959Z,12.45
2023-10-31T02:37:23.335Z,12.39
2023-10-31T02:39:50.718Z,12.32
2023-10-31T02:42:18.094Z,12.29
2023-10-31T02:44:45.584Z,12.24
2023-10-31T02:47:12.979Z,12.22
2023-10-31T02:49:40.442Z,12.28
2023-10-31T02:52:07.892Z,12.32
2023-10-31T02:54:35.459Z,12.28
2023-10-31T02:57:02.912Z,12.25
2023-10-31T02:59:30.311Z,12.22
2023-10-31T03:01:58.170Z,12.20
2023-10-31T03:04:25.558Z,12.16
2023-10-31T03:06:53.132Z,12.12
2023-10-31T03:09:20.568Z,12.09
2023-10-31T03:11:47.972Z,12.04
2023-10-31T03:14:15.441Z,12.01
2023-10-31T03:16:42.950Z,12.07
2023-10-31T03:19:10.576Z,12.05
2023-10-31T03:21:38.275Z,11.98
2023-10-31T03:24:06.020Z,11.93
2023-10-31T03:26:33.381Z,11.89
2023-10-31T03:29:00.824Z,11.84
2023-10-31T03:31:28.259Z,11.79
2023-10-31T03:33:55.720Z,11.74
2023-10-31T03:36:23.100Z,11.71
2023-10-31T03:38:50.466Z,11.77
2023-10-31T03:41:19.062Z,11.81
2023-10-31T03:43:46.516Z,11.77
2023-10-31T03:46:13.932Z,11.73
2023-10-31T03:48:41.352Z,11.70
2023-10-31T03:51:08.867Z,11.66
2023-10-31T03:53:36.311Z,11.63
2023-10-31T03:56:04.038Z,11.59
2023-10-31T03:58:31.509Z,11.56
2023-10-31T04:00:59.533Z,11.64
2023-10-31T04:03:27.679Z,11.69
2023-10-31T04:05:55.576Z,11.66
2023-10-31T04:08:22.920Z,11.62
2023-10-31T04:10:50.619Z,11.58
2023-10-31T04:13:18.064Z,11.54
2023-10-31T04:15:45.420Z,11.50
2023-10-31T04:18:12.855Z,11.47
2023-10-31T04:20:40.311Z,11.45
2023-10-31T04:23:07.761Z,11.53
2023-10-31T04:25:35.383Z,11.55
2023-10-31T04:28:02.815Z,11.53
2023-10-31T04:30:30.379Z,11.51
2023-10-31T04:32:57.766Z,11.49
2023-10-31T04:35:25.225Z,11.46
2023-10-31T04:37:52.708Z,11.45
2023-10-31T04:40:20.060Z,11.46
2023-10-31T04:43:38.540Z,11.62
2023-10-31T04:46:05.981Z,11.63
2023-10-31T04:48:33.362Z,11.61
2023-10-31T04:51:00.820Z,11.60
2023-10-31T04:53:28.220Z,11.58
2023-10-31T04:55:55.843Z,11.57
2023-10-31T04:58:23.246Z,11.56
2023-10-31T05:00:50.629Z,11.55
2023-10-31T05:03:18.736Z,11.56
2023-10-31T05:05:46.351Z,11.66
2023-10-31T05:08:13.822Z,11.72
2023-10-31T05:10:41.610Z,11.72
2023-10-31T05:13:09.035Z,11.72
2023-10-31T05:15:36.407Z,11.71
2023-10-31T05:18:03.942Z,11.69
2023-10-31T05:20:31.487Z,11.69
2023-10-31T05:22:58.909Z,11.69
2023-10-31T05:25:26.347Z,11.67
2023-10-31T05:27:53.786Z,11.68
2023-10-31T05:30:21.226Z,11.69
2023-10-31T05:32:48.598Z,11.78
2023-10-31T05:35:16.232Z,11.83
2023-10-31T05:37:44.083Z,11.83
2023-10-31T05:40:12.019Z,11.84
2023-10-31T05:42:40.300Z,11.84
2023-10-31T05:45:08.051Z,11.87
2023-10-31T05:47:35.477Z,11.88
2023-10-31T05:50:03.089Z,11.90
2023-10-31T05:52:30.972Z,11.91
2023-10-31T05:54:58.800Z,11.92
2023-10-31T05:57:26.200Z,11.94
2023-10-31T05:59:53.773Z,11.95
2023-10-31T06:02:21.474Z,11.97
2023-10-31T06:04:49.021Z,11.98
2023-10-31T06:07:16.403Z,11.99
2023-10-31T06:09:43.772Z,12.03
2023-10-31T06:12:11.194Z,12.16
2023-10-31T06:14:38.635Z,12.26
2023-10-31T06:17:06.038Z,12.27
2023-10-31T06:19:37.723Z,12.27
2023-10-31T06:22:05.422Z,12.28
2023-10-31T06:24:32.893Z,12.30
2023-10-31T06:27:00.441Z,12.31
2023-10-31T06:29:43.561Z,12.32
2023-10-31T06:32:15.455Z,12.33
2023-10-31T06:34:42.879Z,12.33
2023-10-31T06:37:10.480Z,12.33
2023-10-31T06:39:38.086Z,12.33
2023-10-31T06:42:06.060Z,12.32
2023-10-31T06:44:33.489Z,12.32
2023-10-31T06:47:01.186Z,12.33
2023-10-31T06:49:28.718Z,12.37
2023-10-31T06:51:56.180Z,12.48
2023-10-31T06:54:23.641Z,12.58
2023-10-31T06:56:51.087Z,12.62
2023-10-31T06:59:18.641Z,12.68
2023-10-31T07:01:47.811Z,12.72
2023-10-31T07:04:15.675Z,12.77
2023-10-31T07:06:43.168Z,12.84
2023-10-31T07:09:11.163Z,12.91
2023-10-31T07:11:38.780Z,12.98
2023-10-31T07:14:06.274Z,13.04
2023-10-31T07:16:33.850Z,13.09
2023-10-31T07:19:01.286Z,13.15
2023-10-31T07:21:28.706Z,13.22
2023-10-31T07:23:56.743Z,13.29
2023-10-31T07:26:24.733Z,13.33
2023-10-31T07:28:52.267Z,13.37
2023-10-31T07:31:19.825Z,13.41
2023-10-31T07:33:47.288Z,13.44
2023-10-31T07:36:14.783Z,13.47
2023-10-31T07:38:42.240Z,13.51
2023-10-31T07:41:09.700Z,13.53
2023-10-31T07:43:38.880Z,13.58
2023-10-31T07:46:06.952Z,13.64
2023-10-31T07:48:34.490Z,13.71
2023-10-31T07:51:01.929Z,13.78
2023-10-31T07:53:29.455Z,13.85
2023-10-31T07:55:56.999Z,13.95
2023-10-31T07:58:24.507Z,14.04
2023-10-31T08:00:52.009Z,14.10
2023-10-31T08:03:19.637Z,14.18
2023-10-31T08:05:47.204Z,14.23
2023-10-31T08:08:14.772Z,14.29
2023-10-31T08:10:42.332Z,14.39
2023-10-31T08:13:09.873Z,14.50
2023-10-31T08:15:37.944Z,14.64
2023-10-31T08:18:05.479Z,14.75
2023-10-31T08:20:35.066Z,14.81
2023-10-31T08:23:03.378Z,14.87
2023-10-31T08:25:31.130Z,14.94
2023-10-31T08:27:58.735Z,15.04
2023-10-31T08:30:26.315Z,15.19
2023-10-31T08:32:55.292Z,15.39
2023-10-31T08:35:23.593Z,15.62
2023-10-31T08:37:51.316Z,15.77
2023-10-31T08:40:18.780Z,15.90
2023-10-31T08:42:46.201Z,16.04
2023-10-31T08:45:13.679Z,16.24
2023-10-31T08:47:41.190Z,16.47
2023-10-31T08:50:10.026Z,16.73
2023-10-31T08:52:37.491Z,17.02
2023-10-31T08:55:05.428Z,17.40
2023-10-31T08:57:34.830Z,17.82
2023-10-31T09:00:02.314Z,18.09
2023-10-31T09:02:29.830Z,18.35
2023-10-31T09:04:57.332Z,18.59
2023-10-31T09:07:24.928Z,18.89
2023-10-31T09:09:52.345Z,19.21
2023-10-31T09:12:19.824Z,19.50
2023-10-31T09:14:47.526Z,19.86
2023-10-31T09:17:15.024Z,20.35
2023-10-31T09:19:42.537Z,20.92
2023-10-31T09:22:10.141Z,21.43
2023-10-31T09:24:37.613Z,21.73
2023-10-31T09:27:05.064Z,21.88
2023-10-31T09:29:32.790Z,21.96
2023-10-31T09:32:00.715Z,22.13
2023-10-31T09:34:28.190Z,22.54
2023-10-31T09:36:55.778Z,23.20
2023-10-31T09:39:24.405Z,23.74
2023-10-31T09:41:54.750Z,24.23
2023-10-31T09:44:22.822Z,24.76
2023-10-31T09:46:52.634Z,25.40
2023-10-31T09:49:20.565Z,26.16
2023-10-31T09:51:49.847Z,26.88
2023-10-31T09:54:18.208Z,27.43
2023-10-31T09:56:45.870Z,27.82
2023-10-31T09:59:17.292Z,27.97
2023-10-31T10:01:45.894Z,27.99
2023-10-31T10:04:13.607Z,28.23
2023-10-31T10:06:50.951Z,28.44
2023-10-31T10:09:18.729Z,28.65
2023-10-31T10:11:46.446Z,29.04
2023-10-31T10:14:14.000Z,29.60
2023-10-31T10:16:42.234Z,29.90
2023-10-31T10:19:23.038Z,29.76
2023-10-31T10:21:55.817Z,29.80
2023-10-31T10:24:24.460Z,30.15
2023-10-31T10:26:53.082Z,30.20
2023-10-31T10:29:20.963Z,30.51
2023-10-31T10:31:49.109Z,31.25
2023-10-31T10:34:17.526Z,32.05
2023-10-31T10:36:54.313Z,32.72
2023-10-31T10:39:23.160Z,32.98
2023-10-31T10:42:00.960Z,33.07
2023-10-31T10:44:34.515Z,33.06
2023-10-31T10:47:04.277Z,33.01
2023-10-31T10:49:35.122Z,33.08
2023-10-31T10:52:16.357Z,33.30
2023-10-31T10:55:02.762Z,33.61
2023-10-31T10:57:36.118Z,34.04
2023-10-31T11:00:14.259Z,34.19
2023-10-31T11:02:45.083Z,34.09
2023-10-31T11:05:12.689Z,34.03
2023-10-31T11:07:41.391Z,34.00
2023-10-31T11:10:09.928Z,34.14
2023-10-31T11:12:37.874Z,34.29
2023-10-31T11:15:05.841Z,34.35
2023-10-31T11:17:36.613Z,34.24
2023-10-31T11:20:04.887Z,33.98
2023-10-31T11:22:45.129Z,34.27
2023-10-31T11:25:29.525Z,34.58
2023-10-31T11:28:27.214Z,34.71
2023-10-31T11:31:05.358Z,34.71
2023-10-31T11:33:34.288Z,34.55
2023-10-31T11:36:03.034Z,34.56
2023-10-31T11:38:36.152Z,34.69
2023-10-31T11:41:04.627Z,34.83
2023-10-31T11:43:41.155Z,34.97
2023-10-31T11:46:22.237Z,35.15
2023-10-31T11:48:52.906Z,35.24
2023-10-31T11:51:20.714Z,34.94
2023-10-31T11:53:52.306Z,34.54
2023-10-31T11:56:21.378Z,34.13
2023-10-31T11:59:05.027Z,34.01
2023-10-31T12:01:32.641Z,33.87
2023-10-31T12:04:03.273Z,33.77
2023-10-31T12:06:32.301Z,33.64
2023-10-31T12:09:06.583Z,33.35
2023-10-31T12:11:34.036Z,33.23
2023-10-31T12:14:03.830Z,33.02
2023-10-31T12:16:32.298Z,32.61
2023-10-31T12:19:04.395Z,32.36
2023-10-31T12:21:41.209Z,32.15
2023-10-31T12:24:12.409Z,32.06
2023-10-31T12:26:40.099Z,31.93
2023-10-31T12:29:14.372Z,31.95
2023-10-31T12:31:50.653Z,31.79
2023-10-31T12:34:19.087Z,31.34
2023-10-31T12:36:53.528Z,30.97
2023-10-31T12:39:27.534Z,30.83
2023-10-31T12:41:55.534Z,30.56
2023-10-31T12:44:28.277Z,30.19
2023-10-31T12:46:57.363Z,29.85
2023-10-31T12:49:25.592Z,29.21
2023-10-31T12:52:01.183Z,28.23
2023-10-31T12:54:33.094Z,27.18
2023-10-31T12:57:05.827Z,26.31
2023-10-31T12:59:33.613Z,25.73
2023-10-31T13:02:01.338Z,25.34
2023-10-31T13:04:29.898Z,25.08
2023-10-31T13:07:02.646Z,25.03
2023-10-31T13:12:05.329Z,24.61
2023-10-31T13:14:36.945Z,24.37
2023-10-31T13:17:04.755Z,24.32
2023-10-31T13:19:32.806Z,24.44
2023-10-31T13:22:02.783Z,24.60
2023-10-31T13:24:30.524Z,24.68
2023-10-31T13:26:58.363Z,24.68
2023-10-31T13:29:28.947Z,24.54
2023-10-31T13:31:56.735Z,24.26
2023-10-31T13:34:24.784Z,23.87
2023-10-31T13:36:55.266Z,23.42
2023-10-31T13:39:23.319Z,23.02
2023-10-31T13:41:52.160Z,22.70
2023-10-31T13:44:19.674Z,22.41
2023-10-31T13:46:47.408Z,22.15
2023-10-31T13:49:15.659Z,21.92
2023-10-31T13:51:43.179Z,21.70
2023-10-31T13:54:10.680Z,21.50
2023-10-31T13:56:38.228Z,21.32
2023-10-31T13:59:06.936Z,21.18
2023-10-31T14:01:34.543Z,21.04
2023-10-31T14:04:02.520Z,20.92
2023-10-31T14:06:33.657Z,20.81
2023-10-31T14:09:01.555Z,20.73
2023-10-31T14:11:30.055Z,20.65
2023-10-31T14:14:01.347Z,20.57
2023-10-31T14:16:28.836Z,20.49
2023-10-31T14:18:57.005Z,20.41
2023-10-31T14:21:29.196Z,20.33
2023-10-31T14:24:02.018Z,20.25
2023-10-31T14:26:37.646Z,20.17
2023-10-31T14:29:05.261Z,20.10
2023-10-31T14:31:32.840Z,20.02
2023-10-31T14:34:00.507Z,19.97
2023-10-31T14:36:28.072Z,19.92
2023-10-31T14:38:55.510Z,19.85
2023-10-31T14:41:23.116Z,19.78
2023-10-31T14:43:52.955Z,19.72
2023-10-31T14:46:20.393Z,19.65
2023-10-31T14:48:49.436Z,19.60
2023-10-31T14:51:17.827Z,19.56
2023-10-31T14:53:48.118Z,19.52
2023-10-31T14:56:18.040Z,19.47
2023-10-31T14:58:46.755Z,19.42
2023-10-31T15:01:14.756Z,19.37
2023-10-31T15:03:42.687Z,19.33
2023-10-31T15:06:11.278Z,19.29
2023-10-31T15:08:38.765Z,19.25
2023-10-31T15:11:06.387Z,19.21
2023-10-31T15:13:35.185Z,19.18
2023-10-31T15:16:03.147Z,19.14
2023-10-31T15:18:32.895Z,19.11
2023-10-31T15:21:01.565Z,19.07
2023-10-31T15:23:31.397Z,19.02
2023-10-31T15:25:59.204Z,18.99
2023-10-31T15:28:27.620Z,18.96
2023-10-31T15:30:55.282Z,18.90
2023-10-31T15:33:22.919Z,18.85
2023-10-31T15:35:51.855Z,18.81
2023-10-31T15:38:22.543Z,18.77
2023-10-31T15:40:51.442Z,18.74
2023-10-31T15:43:20.174Z,18.72
2023-10-31T15:45:48.146Z,18.68
2023-10-31T15:48:15.632Z,18.64
2023-10-31T15:50:45.191Z,18.59
2023-10-31T15:53:13.190Z,18.56
2023-10-31T15:55:41.156Z,18.53
2023-10-31T15:58:09.104Z,18.49
2023-10-31T16:00:36.767Z,18.45
2023-10-31T16:03:06.931Z,18.42
2023-10-31T16:05:35.352Z,18.39
2023-10-31T16:08:05.800Z,18.36
2023-10-31T16:10:33.825Z,18.34
2023-10-31T16:13:01.433Z,18.31
2023-10-31T16:15:29.038Z,18.27
2023-10-31T16:17:57.405Z,18.25
2023-10-31T16:20:25.323Z,18.22
2023-10-31T16:22:52.965Z,18.18
2023-10-31T16:25:20.565Z,18.14
2023-10-31T16:27:48.266Z,18.10
2023-10-31T16:30:16.639Z,18.08
2023-10-31T16:32:44.692Z,18.05
2023-10-31T16:35:12.288Z,18.03
2023-10-31T16:37:40.236Z,18.02
2023-10-31T16:40:09.288Z,17.99
2023-10-31T16:42:37.255Z,17.97
2023-10-31T16:45:07.221Z,17.94
2023-10-31T16:47:34.902Z,17.91
2023-10-31T16:50:03.750Z,17.87
2023-10-31T16:52:31.542Z,17.84
2023-10-31T16:54:59.511Z,17.82
2023-10-31T16:57:27.346Z,17.81
2023-10-31T17:01:40.938Z,17.81
2023-10-31T17:04:09.053Z,17.75
2023-10-31T17:06:36.846Z,17.72
2023-10-31T17:09:05.329Z,17.69
2023-10-31T17:11:32.992Z,17.67
2023-10-31T17:14:00.846Z,17.66
2023-10-31T17:16:28.472Z,17.66
2023-10-31T17:18:56.339Z,17.63
2023-10-31T17:21:24.449Z,17.59
2023-10-31T17:23:52.017Z,17.56
2023-10-31T17:26:19.670Z,17.52
2023-10-31T17:28:49.037Z,17.49
2023-10-31T17:31:17.649Z,17.46
2023-10-31T17:33:47.385Z,17.44
2023-10-31T17:36:15.523Z,17.42
2023-10-31T17:38:45.587Z,17.41
2023-10-31T17:41:13.432Z,17.40
2023-10-31T17:43:41.102Z,17.39
2023-10-31T17:46:08.548Z,17.38
2023-10-31T17:48:36.136Z,17.36
2023-10-31T17:51:04.777Z,17.35
2023-10-31T17:53:32.279Z,17.36
2023-10-31T17:56:00.418Z,17.36
2023-10-31T17:58:29.231Z,17.34
2023-10-31T18:00:57.901Z,17.32
2023-10-31T18:03:25.553Z,17.29
2023-10-31T18:05:53.095Z,17.28
2023-10-31T18:08:20.952Z,17.26
2023-10-31T18:10:48.546Z,17.23
2023-10-31T18:13:16.129Z,17.24
2023-10-31T18:15:43.856Z,17.33
2023-10-31T18:18:11.490Z,17.33
2023-10-31T18:20:39.341Z,17.30
2023-10-31T18:23:06.869Z,17.25
2023-10-31T18:25:34.304Z,17.21
2023-10-31T18:28:02.136Z,17.17
2023-10-31T18:30:29.888Z,17.14
2023-10-31T18:33:04.372Z,17.20
2023-10-31T18:35:33.179Z,17.18
2023-10-31T18:38:00.568Z,17.13
2023-10-31T18:40:28.627Z,17.09
2023-10-31T18:42:56.204Z,17.04
2023-10-31T18:45:24.880Z,16.97
2023-10-31T18:47:52.457Z,17.06
2023-10-31T18:50:20.089Z,17.05
2023-10-31T18:52:47.782Z,17.02
2023-10-31T18:55:15.377Z,16.98
2023-10-31T18:57:59.603Z,16.94
2023-10-31T19:00:27.605Z,16.99
2023-10-31T19:02:56.465Z,16.99
2023-10-31T19:05:26.123Z,16.94
2023-10-31T19:07:54.020Z,16.87
2023-10-31T19:10:23.227Z,16.85
2023-10-31T19:12:50.756Z,16.89
2023-10-31T19:15:20.062Z,16.86
2023-10-31T19:17:47.970Z,16.78
2023-10-31T19:20:15.772Z,16.73
2023-10-31T19:22:46.310Z,16.75
2023-10-31T19:25:13.938Z,16.70
2023-10-31T19:27:41.562Z,16.61
2023-10-31T19:30:09.869Z,16.55
2023-10-31T19:32:37.863Z,16.59
2023-10-31T19:35:06.415Z,16.56
2023-10-31T19:37:34.170Z,16.48
2023-10-31T19:40:05.297Z,16.43
2023-10-31T19:42:33.061Z,16.46
2023-10-31T19:45:01.605Z,16.42
2023-10-31T19:47:29.440Z,16.34
2023-10-31T19:49:57.509Z,16.28
2023-10-31T19:52:25.001Z,16.31
2023-10-31T19:54:52.496Z,16.28
2023-10-31T19:57:21.168Z,16.20
2023-10-31T19:59:48.632Z,16.13
2023-10-31T20:02:16.238Z,16.14
2023-10-31T20:04:44.899Z,16.14
2023-10-31T20:07:12.515Z,16.06
2023-10-31T20:09:40.056Z,15.99
2023-10-31T20:12:08.778Z,16.00
2023-10-31T20:14:59.340Z,16.00
2023-10-31T20:17:27.978Z,15.91
2023-10-31T20:19:55.597Z,15.85
2023-10-31T20:22:23.090Z,15.86
2023-10-31T20:24:51.055Z,15.86
2023-10-31T20:27:18.446Z,15.79
2023-10-31T20:29:45.931Z,15.71
2023-10-31T20:32:14.287Z,15.73
2023-10-31T20:34:41.799Z,15.71
2023-10-31T20:37:09.315Z,15.64
2023-10-31T20:39:36.800Z,15.56
2023-10-31T20:42:04.458Z,15.58
2023-10-31T20:44:32.356Z,15.57
2023-10-31T20:46:59.901Z,15.50
2023-10-31T20:49:27.622Z,15.43
2023-10-31T20:51:55.113Z,15.44
2023-10-31T20:54:22.618Z,15.44
2023-10-31T20:56:50.131Z,15.36
2023-10-31T20:59:19.100Z,15.31
2023-10-31T21:01:46.937Z,15.33
2023-10-31T21:04:14.442Z,15.33
2023-10-31T21:06:41.993Z,15.26
2023-10-31T21:09:11.151Z,15.20
2023-10-31T21:11:38.660Z,15.22
2023-10-31T21:14:06.157Z,15.20
2023-10-31T21:16:34.022Z,15.14
2023-10-31T21:19:02.101Z,15.16
2023-10-31T21:21:32.485Z,15.17
2023-10-31T21:24:01.570Z,15.13
2023-10-31T21:26:29.096Z,15.07
2023-10-31T21:28:56.899Z,15.07
2023-10-31T21:31:24.771Z,15.06
2023-10-31T21:33:52.241Z,14.98
2023-10-31T21:36:19.710Z,14.92
2023-10-31T21:38:47.211Z,14.95
2023-10-31T21:41:15.704Z,14.93
2023-10-31T21:43:43.224Z,14.85
2023-10-31T21:46:10.840Z,14.84
2023-10-31T21:48:38.408Z,14.86
2023-10-31T21:51:06.070Z,14.80
2023-10-31T21:53:33.649Z,14.71
2023-10-31T21:56:01.246Z,14.68
2023-10-31T21:58:28.692Z,14.71
2023-10-31T22:00:57.732Z,14.68
2023-10-31T22:03:25.247Z,14.62
2023-10-31T22:05:53.152Z,14.56
2023-10-31T22:08:21.960Z,14.58
2023-10-31T22:10:49.962Z,14.59
2023-10-31T22:13:17.370Z,14.52
2023-10-31T22:15:44.890Z,14.46
2023-10-31T22:18:14.346Z,14.47
2023-10-31T22:20:43.191Z,14.46
2023-10-31T22:23:10.665Z,14.40
2023-10-31T22:25:38.200Z,14.37
2023-10-31T22:28:05.630Z,14.41
2023-10-31T22:30:33.090Z,14.39
2023-10-31T22:33:00.747Z,14.35
2023-10-31T22:35:28.204Z,14.35
2023-10-31T22:37:56.864Z,14.34
2023-10-31T22:40:24.524Z,14.29
2023-10-31T22:42:52.431Z,14.25
2023-10-31T22:45:19.967Z,14.28
2023-10-31T22:47:47.510Z,14.29
2023-10-31T22:50:15.049Z,14.23
2023-10-31T22:52:42.527Z,14.24
2023-10-31T22:55:10.060Z,14.27
2023-10-31T22:57:37.659Z,14.28
2023-10-31T23:00:11.447Z,14.22
2023-10-31T23:02:39.020Z,14.18
2023-10-31T23:05:08.876Z,14.22
2023-10-31T23:07:36.331Z,14.17
2023-10-31T23:10:04.094Z,14.11
2023-10-31T23:12:31.871Z,14.12
2023-10-31T23:15:00.104Z,14.11
2023-10-31T23:17:27.842Z,14.10
2023-10-31T23:19:57.728Z,14.04
2023-10-31T23:22:25.171Z,14.04
2023-10-31T23:24:52.610Z,14.05
2023-10-31T23:27:20.053Z,14.02
2023-10-31T23:29:48.114Z,13.94
2023-10-31T23:32:15.593Z,13.96
2023-10-31T23:34:43.072Z,14.00
2023-10-31T23:37:10.527Z,13.99
2023-10-31T23:39:38.306Z,13.94
2023-10-31T23:42:05.765Z,13.95
2023-10-31T23:44:33.342Z,13.96
2023-10-31T23:47:00.759Z,13.92
2023-10-31T23:49:28.235Z,13.92
2023-10-31T23:51:55.699Z,13.91
2023-10-31T23:54:23.157Z,13.86
2023-10-31T23:56:50.592Z,13.89
2023-10-31T23:59:18.119Z,13.92
